Terminal Aerodrome Forecast
Issued by NWS

Home | Current Version | Previous Version | Text Only | Print | Product List | Glossary On
Versions: 1 2 3 4 5 6 7 8 9 10 11 12 13 14 15 16 17 18 19 20 21 22 23 24 25 26
000
FTAK31 PANC 021144
TAFADL
TAF
PADL 021144Z 0212/0312 03008KT P6SM VCSH BKN060 OVC120
     FM021500 06009G15KT 6SM -RA BR SCT010 BKN028 OVC050
     FM021800 08012KT 5SM -RA BR SCT006 OVC015
     FM030300 08008KT 4SM -RA BR SCT005 OVC010
      AMD LTD TO CLD VIS AND WIND TIL 021600=

USA.gov is the U.S. government's official web portal to all federal, state and local government web resources and services.